CWB weather

Afonso Pena Airport
Curitiba, ParanĂ¡, Brazil

Public forecast

Using degrees Celsius for public forecast. Weather courtesy of forecast.io.

Current aviation weather report (METAR) for Afonso Pena Airport

Retrieved 2019/12/12 15:00 UTC (42 minutes ago):

SBCT 121500Z 26010KT 9999 FEW035 27/17 Q1013

Aviation forecast (TAF) for Afonso Pena Airport

Retrieved 2019/12/12 12:00 UTC (4 hours ago):

TAF SBCT 120930Z 1212/1312 06007KT 9999 BKN008 TX24/1218Z TN17/1308Z BECMG 1212/1214 29007KT BKN015 BECMG 1214/1216 BKN025 PROB40 TEMPO 1218/1221 8000 TSRA BKN025 FEW030CB BECMG 1300/1302 09005KT OVC005 PROB40 1307/1310 2000 BCFG OVC002 BECMG 1310/1312 BKN010 RMK PER